Time;durP1;ratioP1;P1;durP2;ratioP2;P2;SDS_P1;SDS_P2;PMS_P1;PMS_P2;Temp;Humidity;BMP_temperature;BMP_pressure;BME280_temperature;BME280_humidity;BME280_pressure;Samples;Min_cycle;Max_cycle;Signal;HPM_P1;HPM_P2
2023/06/17 00:00:18;;;;;;;10.15;7.53;;;;;;;15.35;100.00;99908.66;5588012;31;34518;-68
2023/06/17 00:03:25;;;;;;;9.93;7.25;;;;;;;15.42;100.00;99904.97;5588092;31;34752;-68
2023/06/17 00:06:34;;;;;;;11.10;7.40;;;;;;;15.42;100.00;99906.81;5587958;31;34625;-69
2023/06/17 00:09:44;;;;;;;9.75;7.05;;;;;;;15.48;100.00;99909.47;5587966;31;34759;-68
2023/06/17 00:12:51;;;;;;;12.63;7.75;;;;;;;15.46;100.00;99900.00;5587928;31;33657;-68
2023/06/17 00:16:00;;;;;;;9.25;6.40;;;;;;;15.43;100.00;99889.75;5588008;31;33678;-68
2023/06/17 00:19:07;;;;;;;8.82;6.00;;;;;;;15.63;100.00;99896.72;5587863;31;34307;-68
2023/06/17 00:22:13;;;;;;;7.62;6.07;;;;;;;15.52;100.00;99892.00;5587948;31;34174;-69
2023/06/17 00:25:21;;;;;;;10.60;6.20;;;;;;;15.49;100.00;99887.03;5587926;31;34457;-68
2023/06/17 00:28:30;;;;;;;7.63;6.10;;;;;;;15.44;100.00;99886.84;5587822;31;33876;-68
2023/06/17 00:31:39;;;;;;;7.67;5.80;;;;;;;15.52;100.00;99880.50;5587947;31;34545;-68
2023/06/17 00:34:48;;;;;;;;;;;;;;;15.43;100.00;99877.22;5587898;31;34584;-68
2023/06/17 00:37:54;;;;;;;8.90;5.72;;;;;;;15.40;100.00;99877.63;5587678;31;34968;-68
2023/06/17 00:41:01;;;;;;;7.45;5.50;;;;;;;15.33;100.00;99878.69;5587664;31;34324;-68
2023/06/17 00:44:05;;;;;;;6.53;5.45;;;;;;;15.28;100.00;99875.81;5587766;31;33664;-68
2023/06/17 00:47:15;;;;;;;10.40;5.93;;;;;;;15.32;100.00;99875.19;5587740;31;35159;-68
2023/06/17 00:50:21;;;;;;;9.38;5.97;;;;;;;15.31;100.00;99873.53;5587575;31;33956;-66
2023/06/17 00:53:31;;;;;;;9.27;5.47;;;;;;;15.29;100.00;99877.47;5587589;31;34841;-66
2023/06/17 00:56:41;;;;;;;8.93;5.57;;;;;;;15.36;100.00;99875.56;5587594;31;33873;-68
2023/06/17 00:59:51;;;;;;;12.40;5.90;;;;;;;15.34;100.00;99870.47;5585891;31;33995;-67
2023/06/17 01:03:01;;;;;;;9.48;5.85;;;;;;;15.29;100.00;99870.28;5587492;31;33926;-70
2023/06/17 01:06:19;;;;;;;9.88;6.22;;;;;;;15.26;100.00;99865.31;5587459;31;33961;-67
2023/06/17 01:09:29;;;;;;;11.05;5.72;;;;;;;15.25;100.00;99865.56;5586559;31;34033;-67
2023/06/17 01:12:36;;;;;;;7.93;5.87;;;;;;;15.22;100.00;99862.25;5587360;31;33676;-67
2023/06/17 01:15:42;;;;;;;12.00;5.82;;;;;;;15.26;100.00;99856.50;5587492;31;34035;-68
2023/06/17 01:18:52;;;;;;;9.23;5.60;;;;;;;15.27;100.00;99863.47;5587332;31;34865;-67
2023/06/17 01:22:00;;;;;;;10.95;6.25;;;;;;;15.25;100.00;99860.22;5587295;31;33932;-67
2023/06/17 01:25:13;;;;;;;9.80;5.87;;;;;;;15.26;100.00;99865.31;5587404;31;33902;-67
2023/06/17 01:28:24;;;;;;;10.98;5.70;;;;;;;15.23;100.00;99861.25;5587432;31;34697;-67
2023/06/17 01:31:31;;;;;;;10.23;5.82;;;;;;;15.25;100.00;99861.00;5586445;31;33789;-67
2023/06/17 01:35:02;;;;;;;10.15;5.60;;;;;;;15.12;100.00;99856.53;5587326;31;33906;-67
2023/06/17 01:38:24;;;;;;;10.75;6.15;;;;;;;15.06;100.00;99864.56;5587293;31;34446;-68
2023/06/17 01:41:37;;;;;;;7.78;5.35;;;;;;;15.00;100.00;99863.56;5587058;31;34744;-68
2023/06/17 01:44:43;;;;;;;8.98;5.70;;;;;;;14.96;100.00;99859.66;5585932;31;33909;-68
2023/06/17 01:47:50;;;;;;;8.60;5.32;;;;;;;14.95;100.00;99866.03;5587270;31;33948;-66
2023/06/17 01:50:59;;;;;;;8.98;6.03;;;;;;;14.97;100.00;99866.63;5586978;31;35412;-67
2023/06/17 01:54:08;;;;;;;12.63;6.15;;;;;;;15.03;100.00;99868.47;5587182;31;34562;-68
2023/06/17 01:57:16;;;;;;;12.05;5.93;;;;;;;15.08;100.00;99876.69;5587430;31;34097;-67
2023/06/17 02:00:21;;;;;;;14.10;6.10;;;;;;;15.06;100.00;99870.72;5587071;31;33723;-68
2023/06/17 02:03:30;;;;;;;8.40;5.78;;;;;;;15.05;100.00;99866.44;5587097;31;33660;-68
2023/06/17 02:06:38;;;;;;;7.10;6.28;;;;;;;15.05;100.00;99868.28;5586990;31;33935;-67
2023/06/17 02:09:45;;;;;;;11.03;5.77;;;;;;;15.07;100.00;99858.19;5587069;31;33791;-67
2023/06/17 02:12:54;;;;;;;9.20;5.65;;;;;;;15.02;100.00;99860.66;5586742;31;34092;-68
2023/06/17 02:16:03;;;;;;;7.47;5.82;;;;;;;14.99;100.00;99861.09;5586872;31;33791;-66
2023/06/17 02:19:12;;;;;;;9.15;5.90;;;;;;;14.94;100.00;99864.41;5586867;31;34575;-68
2023/06/17 02:22:18;;;;;;;9.23;5.47;;;;;;;14.83;100.00;99857.00;5586758;31;34610;-67
2023/06/17 02:25:29;;;;;;;10.13;5.57;;;;;;;14.91;100.00;99866.66;5586832;31;34967;-68
2023/06/17 02:28:37;;;;;;;12.35;6.10;;;;;;;14.77;100.00;99857.84;5586764;31;33313;-68
2023/06/17 02:31:43;;;;;;;10.52;6.30;;;;;;;14.70;100.00;99859.69;5586979;31;33970;-67
2023/06/17 02:34:51;;;;;;;8.55;5.65;;;;;;;14.69;100.00;99861.53;5586736;31;33977;-67
2023/06/17 02:37:57;;;;;;;11.60;5.80;;;;;;;14.69;100.00;99866.88;5586618;31;33974;-68
2023/06/17 02:41:03;;;;;;;9.93;6.07;;;;;;;14.73;100.00;99859.28;5586499;31;33853;-67
2023/06/17 02:44:10;;;;;;;9.27;5.95;;;;;;;14.71;100.00;99866.69;5586799;31;34186;-68
2023/06/17 02:47:17;;;;;;;8.35;5.93;;;;;;;14.70;100.00;99873.06;5586429;31;34504;-68
2023/06/17 02:50:26;;;;;;;10.55;5.65;;;;;;;14.70;100.00;99868.53;5586348;31;33696;-68
2023/06/17 02:53:36;;;;;;;11.65;5.72;;;;;;;14.69;100.00;99858.06;5586461;31;33972;-68
2023/06/17 02:56:42;;;;;;;10.32;6.25;;;;;;;14.64;100.00;99879.22;5584686;31;33891;-68
2023/06/17 02:59:50;;;;;;;8.68;6.12;;;;;;;14.61;100.00;99872.44;5578445;31;33681;-67
2023/06/17 03:02:58;;;;;;;8.65;5.90;;;;;;;14.59;100.00;99863.00;5585833;31;33976;-67
2023/06/17 03:06:07;;;;;;;11.23;6.25;;;;;;;14.58;100.00;99872.03;5585461;31;33627;-67
2023/06/17 03:09:15;;;;;;;9.07;5.80;;;;;;;14.59;100.00;99879.84;5586083;31;33893;-67
2023/06/17 03:12:22;;;;;;;7.75;6.03;;;;;;;14.64;100.00;99882.72;5585998;31;34598;-67
2023/06/17 03:15:27;;;;;;;9.65;6.25;;;;;;;14.59;100.00;99882.50;5586010;31;34183;-67
2023/06/17 03:18:36;;;;;;;11.12;5.90;;;;;;;14.57;100.00;99881.06;5585972;31;33872;-66
2023/06/17 03:21:45;;;;;;;11.12;6.00;;;;;;;14.63;100.00;99885.56;5585683;31;33935;-67
2023/06/17 03:24:54;;;;;;;10.65;6.10;;;;;;;14.66;100.00;99880.66;5585690;31;33814;-68
2023/06/17 03:28:02;;;;;;;8.85;5.75;;;;;;;14.63;100.00;99875.72;5585825;31;33508;-68
2023/06/17 03:31:08;;;;;;;9.48;5.68;;;;;;;14.70;100.00;99889.91;5585719;31;34561;-67
2023/06/17 03:34:16;;;;;;;8.02;5.55;;;;;;;14.76;100.00;99889.03;5586038;31;34904;-68
2023/06/17 03:37:22;;;;;;;11.23;5.93;;;;;;;14.78;100.00;99891.53;5585645;31;33519;-67
2023/06/17 03:40:29;;;;;;;8.75;5.70;;;;;;;14.81;100.00;99900.97;5585644;31;33879;-67
2023/06/17 03:43:39;;;;;;;7.65;5.37;;;;;;;14.85;100.00;99907.56;5585539;31;34505;-68
2023/06/17 03:46:44;;;;;;;10.55;5.72;;;;;;;14.97;100.00;99901.34;5584462;31;34119;-66
2023/06/17 03:49:54;;;;;;;6.97;5.22;;;;;;;14.91;100.00;99906.72;5585429;31;33923;-67
2023/06/17 03:53:00;;;;;;;9.65;5.70;;;;;;;14.92;100.00;99905.69;5585270;31;35064;-66
2023/06/17 03:56:08;;;;;;;7.32;5.37;;;;;;;14.93;100.00;99904.66;5584445;31;33827;-67
2023/06/17 03:59:15;;;;;;;7.53;5.57;;;;;;;14.92;100.00;99908.34;5585205;31;34423;-68
2023/06/17 04:02:22;;;;;;;9.00;5.47;;;;;;;14.93;100.00;99904.66;5585156;31;33830;-68
2023/06/17 04:05:31;;;;;;;7.95;5.93;;;;;;;14.94;100.00;99903.63;5585083;31;33957;-66
2023/06/17 04:08:39;;;;;;;10.23;5.50;;;;;;;15.01;100.00;99907.94;5586699;31;33695;-68
2023/06/17 04:11:47;;;;;;;8.43;5.62;;;;;;;15.06;100.00;99912.66;5587883;31;34025;-68
2023/06/17 04:14:54;;;;;;;6.95;5.35;;;;;;;14.99;100.00;99909.19;5587929;31;34577;-67
2023/06/17 04:18:03;;;;;;;;;;;;;;;15.17;100.00;99917.34;5588214;31;34166;-68
2023/06/17 04:21:11;;;;;;;9.55;5.93;;;;;;;15.23;100.00;99917.34;5588303;31;33882;-67
2023/06/17 04:24:23;;;;;;;9.40;5.60;;;;;;;15.41;100.00;99918.53;5587789;31;34381;-69
2023/06/17 04:27:31;;;;;;;7.90;5.60;;;;;;;15.47;100.00;99923.03;5587810;31;33623;-68
2023/06/17 04:30:40;;;;;;;7.45;5.50;;;;;;;15.45;100.00;99914.41;5587860;31;33926;-67
2023/06/17 04:33:47;;;;;;;9.02;5.35;;;;;;;15.58;100.00;99915.22;5588005;31;34019;-68
2023/06/17 04:36:57;;;;;;;7.72;5.55;;;;;;;15.56;100.00;99914.63;5587543;31;33875;-67
2023/06/17 04:40:11;;;;;;;8.95;5.53;;;;;;;15.65;100.00;99926.72;5587776;31;34016;-68
2023/06/17 04:43:22;;;;;;;9.13;5.05;;;;;;;15.95;100.00;99934.19;5587663;31;34257;-69
2023/06/17 04:46:30;;;;;;;7.32;5.32;;;;;;;15.97;100.00;99935.66;5587555;31;33818;-68
2023/06/17 04:49:41;;;;;;;8.90;5.85;;;;;;;15.82;100.00;99932.41;5587537;31;34628;-67
2023/06/17 04:52:47;;;;;;;8.05;5.25;;;;;;;15.80;100.00;99930.97;5586397;31;33966;-67
2023/06/17 04:55:53;;;;;;;7.00;5.20;;;;;;;15.89;100.00;99932.37;5587645;31;34288;-67
2023/06/17 04:58:59;;;;;;;7.43;5.12;;;;;;;15.98;100.00;99934.59;5575692;31;33793;-68
2023/06/17 05:02:05;;;;;;;8.70;5.22;;;;;;;16.00;100.00;99927.19;5567832;32;34531;-68
2023/06/17 05:05:12;;;;;;;7.93;4.87;;;;;;;16.17;100.00;99926.69;5567957;32;33642;-68
2023/06/17 05:08:21;;;;;;;6.85;5.10;;;;;;;16.52;100.00;99931.38;5567869;32;34513;-67
2023/06/17 05:11:27;;;;;;;9.00;5.18;;;;;;;16.33;100.00;99937.69;5567832;32;33877;-67
2023/06/17 05:14:34;;;;;;;8.13;5.05;;;;;;;16.33;100.00;99934.19;5567928;32;34456;-67
2023/06/17 05:17:40;;;;;;;7.82;4.95;;;;;;;16.26;100.00;99939.59;5567067;32;33608;-68
2023/06/17 05:20:49;;;;;;;10.15;5.30;;;;;;;16.35;100.00;99937.47;5571735;31;34056;-69
2023/06/17 05:23:56;;;;;;;6.82;4.90;;;;;;;16.51;100.00;99931.59;5587457;31;33760;-68
2023/06/17 05:27:06;;;;;;;10.73;5.00;;;;;;;16.53;100.00;99941.06;5587392;31;34519;-67
2023/06/17 05:30:12;;;;;;;11.88;5.28;;;;;;;16.63;100.00;99932.56;5587088;31;34453;-68
2023/06/17 05:33:19;;;;;;;8.55;5.28;;;;;;;16.68;100.00;99935.41;5587108;31;34546;-68
2023/06/17 05:36:25;;;;;;;7.45;4.78;;;;;;;16.58;100.00;99928.88;5587431;31;33459;-67
2023/06/17 05:39:32;;;;;;;8.40;5.35;;;;;;;16.70;100.00;99937.88;5587133;31;33800;-65
2023/06/17 05:42:40;;;;;;;8.00;4.93;;;;;;;16.84;100.00;99942.91;5587095;31;34952;-66
2023/06/17 05:45:48;;;;;;;6.55;4.65;;;;;;;16.80;100.00;99939.00;5587253;31;33958;-68
2023/06/17 05:48:54;;;;;;;15.82;5.28;;;;;;;17.03;100.00;99948.31;5586816;31;33119;-68
2023/06/17 05:52:04;;;;;;;13.25;4.90;;;;;;;17.05;100.00;99943.53;5586859;31;34012;-68
2023/06/17 05:55:10;;;;;;;10.70;4.93;;;;;;;16.90;100.00;99951.91;5587012;31;34475;-66
2023/06/17 05:58:16;;;;;;;9.40;5.70;;;;;;;16.76;100.00;99953.06;5587011;31;33869;-68
2023/06/17 06:01:21;;;;;;;9.32;4.97;;;;;;;16.78;100.00;99969.75;5586148;31;33728;-68
2023/06/17 06:04:29;;;;;;;8.75;5.18;;;;;;;16.78;100.00;99965.22;5586353;31;33601;-69
2023/06/17 06:07:34;;;;;;;9.07;5.55;;;;;;;16.98;100.00;99965.06;5586001;31;34145;-68
2023/06/17 06:10:42;;;;;;;7.65;5.40;;;;;;;17.03;100.00;99961.72;5569272;31;33786;-69
2023/06/17 06:13:50;;;;;;;8.10;5.40;;;;;;;16.75;100.00;99960.28;5569934;31;33575;-68
2023/06/17 06:16:59;;;;;;;9.00;5.28;;;;;;;17.06;100.00;99969.31;5567385;32;33683;-67
2023/06/17 06:20:08;;;;;;;8.10;5.00;;;;;;;17.34;100.00;99958.94;5566483;32;33586;-68
2023/06/17 06:23:17;;;;;;;8.38;4.85;;;;;;;17.43;100.00;99967.53;5566868;32;34989;-69
2023/06/17 06:26:23;;;;;;;8.90;5.75;;;;;;;17.47;100.00;99963.34;5567274;31;33629;-68
2023/06/17 06:29:30;;;;;;;8.93;5.10;;;;;;;17.90;100.00;99957.94;5584160;31;33698;-68
2023/06/17 06:32:35;;;;;;;9.32;5.55;;;;;;;17.86;100.00;99965.63;5585777;31;33811;-69
2023/06/17 06:35:43;;;;;;;8.82;5.10;;;;;;;17.87;100.00;99963.72;5586866;31;34305;-69
2023/06/17 06:38:48;;;;;;;9.70;5.20;;;;;;;17.94;100.00;99965.31;5584329;31;33868;-71
2023/06/17 06:41:56;;;;;;;6.80;4.78;;;;;;;17.99;100.00;99973.50;5586442;31;33708;-69
2023/06/17 06:45:04;;;;;;;11.70;5.30;;;;;;;18.16;100.00;99971.81;5585376;31;33878;-67
2023/06/17 06:48:13;;;;;;;10.95;5.30;;;;;;;18.37;100.00;99973.19;5586159;31;33755;-68
2023/06/17 06:51:21;;;;;;;16.10;5.40;;;;;;;18.37;100.00;99969.69;5584874;31;34647;-69
2023/06/17 06:54:29;;;;;;;11.30;4.90;;;;;;;18.32;100.00;99973.06;5586024;31;34259;-69
2023/06/17 06:57:38;;;;;;;9.68;4.40;;;;;;;18.22;100.00;99973.59;5586196;31;33749;-66
2023/06/17 07:00:43;;;;;;;7.57;4.87;;;;;;;18.42;100.00;99983.25;5586126;31;33814;-69
2023/06/17 07:03:51;;;;;;;11.00;4.62;;;;;;;18.61;100.00;99990.25;5586228;31;33647;-69
2023/06/17 07:07:00;;;;;;;7.28;4.65;;;;;;;18.95;100.00;99988.69;5585998;31;33961;-69
2023/06/17 07:10:07;;;;;;;6.57;4.97;;;;;;;18.95;100.00;99988.69;5585483;31;34069;-68
2023/06/17 07:13:17;;;;;;;7.00;4.85;;;;;;;19.35;100.00;99995.03;5585009;31;34195;-69
2023/06/17 07:16:24;;;;;;;11.25;4.90;;;;;;;19.52;100.00;99992.47;5570222;31;33901;-69
2023/06/17 07:19:32;;;;;;;7.28;4.93;;;;;;;19.47;100.00;99995.03;5565357;32;33814;-68
2023/06/17 07:22:42;;;;;;;6.95;4.53;;;;;;;19.39;100.00;99993.50;5566214;31;34352;-68
2023/06/17 07:25:51;;;;;;;6.73;4.63;;;;;;;19.49;100.00;99987.56;5585809;31;34609;-69
2023/06/17 07:29:01;;;;;;;6.30;4.60;;;;;;;19.39;100.00;99990.81;5585781;31;34064;-69
2023/06/17 07:32:10;;;;;;;10.57;4.60;;;;;;;19.76;100.00;99986.00;5584461;31;33936;-69
2023/06/17 07:35:18;;;;;;;6.47;4.43;;;;;;;20.01;97.86;99987.56;5574034;31;34410;-68
2023/06/17 07:38:27;;;;;;;8.05;4.80;;;;;;;20.01;97.09;99993.78;5585274;31;33912;-69
2023/06/17 07:41:34;;;;;;;8.27;4.62;;;;;;;20.73;89.37;99988.69;5585977;31;34353;-69
2023/06/17 07:44:43;;;;;;;5.62;4.05;;;;;;;20.97;85.31;99984.78;5588265;31;34858;-69
2023/06/17 07:47:50;;;;;;;10.43;4.70;;;;;;;20.87;85.00;99990.00;5588036;31;33799;-70
2023/06/17 07:50:58;;;;;;;7.05;4.50;;;;;;;21.61;82.29;99987.94;5588033;31;33793;-69
2023/06/17 07:54:05;;;;;;;8.27;4.40;;;;;;;21.88;77.08;99982.62;5587936;31;33566;-67
2023/06/17 07:57:12;;;;;;;8.35;4.40;;;;;;;22.36;77.62;99979.97;5588044;31;33967;-70
2023/06/17 08:00:18;;;;;;;6.40;3.85;;;;;;;22.73;72.92;99982.78;5588126;31;34496;-69
2023/06/17 08:03:27;;;;;;;8.05;4.28;;;;;;;23.34;68.16;99985.97;5587741;31;33879;-69
2023/06/17 08:06:32;;;;;;;7.03;3.78;;;;;;;22.45;67.49;99977.63;5587056;31;33778;-70
2023/06/17 08:09:40;;;;;;;10.02;3.20;;;;;;;23.18;66.43;99976.94;5587900;31;34361;-70
2023/06/17 08:12:48;;;;;;;3.85;3.08;;;;;;;24.97;57.81;99975.47;5587740;31;34001;-70
2023/06/17 08:15:53;;;;;;;9.27;3.03;;;;;;;25.27;55.37;99985.47;5587193;31;33759;-68
2023/06/17 08:18:59;;;;;;;6.47;3.30;;;;;;;25.02;54.12;99972.75;5586471;31;34552;-69
2023/06/17 08:22:06;;;;;;;5.28;3.55;;;;;;;24.48;56.70;99971.59;5587278;31;33902;-69
2023/06/17 08:25:13;;;;;;;7.28;3.37;;;;;;;24.60;55.57;99972.16;5586954;31;33611;-69
2023/06/17 08:28:23;;;;;;;6.10;3.28;;;;;;;25.75;53.17;99977.81;5586690;31;34111;-70
2023/06/17 08:31:31;;;;;;;11.45;3.87;;;;;;;25.16;53.48;99975.72;5586438;31;34514;-70
2023/06/17 08:34:40;;;;;;;5.75;3.40;;;;;;;26.05;50.77;99985.00;5587126;31;34564;-72
2023/06/17 08:37:47;;;;;;;9.35;3.40;;;;;;;25.28;52.07;99978.13;5587069;31;33892;-70
2023/06/17 08:40:53;;;;;;;6.45;3.35;;;;;;;23.65;56.02;99978.87;5586286;31;33794;-70
2023/06/17 08:44:01;;;;;;;6.72;3.33;;;;;;;23.65;58.79;99987.81;5586884;31;33819;-71
2023/06/17 08:47:06;;;;;;;7.55;3.30;;;;;;;24.11;57.08;99988.00;5586391;31;34248;-69
2023/06/17 08:50:12;;;;;;;5.15;3.25;;;;;;;24.42;55.23;99989.75;5587098;31;33777;-71
2023/06/17 08:53:18;;;;;;;6.05;3.75;;;;;;;23.89;56.73;99990.91;5585694;31;34731;-69
2023/06/17 08:56:24;;;;;;;8.45;3.80;;;;;;;23.70;58.04;99984.31;5586125;31;33674;-71
2023/06/17 08:59:31;;;;;;;5.15;3.22;;;;;;;24.00;57.16;99987.19;5586324;31;34760;-71
2023/06/17 09:02:41;;;;;;;6.35;3.70;;;;;;;23.76;58.56;99985.97;5584029;31;35260;-70
2023/06/17 09:05:52;;;;;;;10.50;3.45;;;;;;;24.12;57.75;99986.94;5567142;31;34420;-71
2023/06/17 09:08:59;;;;;;;5.62;3.37;;;;;;;24.24;57.28;99991.09;5571890;31;34448;-70
2023/06/17 09:12:08;;;;;;;4.90;3.20;;;;;;;25.39;54.94;99993.34;5575882;31;33908;-71
2023/06/17 09:15:17;;;;;;;7.55;3.15;;;;;;;25.39;54.81;99983.28;5582431;31;34361;-71
2023/06/17 09:18:23;;;;;;;6.93;3.42;;;;;;;26.28;50.92;99981.66;5577939;31;34158;-71
2023/06/17 09:21:29;;;;;;;6.90;3.60;;;;;;;26.47;49.48;99982.62;5571918;31;34609;-72
2023/06/17 09:24:40;;;;;;;4.82;3.20;;;;;;;25.35;52.81;99975.97;5568627;31;34727;-72
2023/06/17 09:27:50;;;;;;;5.28;3.25;;;;;;;27.23;49.15;99987.50;5573295;31;34449;-69
2023/06/17 09:31:04;;;;;;;6.57;2.92;;;;;;;26.77;49.10;99974.25;5584246;31;33864;-69
2023/06/17 09:34:10;;;;;;;8.32;3.20;;;;;;;26.65;47.80;99976.53;5584953;31;32633;-68
2023/06/17 09:37:21;;;;;;;5.20;3.20;;;;;;;27.16;47.33;99987.00;5583160;31;33514;-69
2023/06/17 09:40:32;;;;;;;6.62;3.10;;;;;;;25.84;49.82;99984.28;5583285;31;34306;-69
2023/06/17 09:43:41;;;;;;;10.40;3.20;;;;;;;25.92;49.20;99983.69;5575712;31;33853;-69
2023/06/17 09:46:49;;;;;;;4.75;3.40;;;;;;;26.39;49.03;99991.38;5577455;31;33822;-70
2023/06/17 09:49:55;;;;;;;5.93;3.28;;;;;;;24.55;52.55;99983.81;5586745;31;34053;-70
2023/06/17 09:53:01;;;;;;;8.95;3.60;;;;;;;24.97;52.73;99991.75;5586218;31;34006;-70
2023/06/17 09:56:10;;;;;;;4.07;2.92;;;;;;;25.06;51.06;99979.28;5583473;31;34295;-69
2023/06/17 09:59:21;;;;;;;7.70;3.60;;;;;;;25.71;51.40;99984.84;5586887;31;34550;-70
2023/06/17 10:02:28;;;;;;;6.50;3.58;;;;;;;25.82;50.48;99978.31;5577938;31;34273;-69
2023/06/17 10:05:36;;;;;;;8.85;3.15;;;;;;;25.08;51.64;99987.13;5585325;31;35166;-70
2023/06/17 10:08:45;;;;;;;4.55;3.25;;;;;;;26.15;49.63;99982.22;5580207;31;33256;-67
2023/06/17 10:11:53;;;;;;;5.55;3.17;;;;;;;26.34;47.28;99984.06;5577697;31;33916;-66
2023/06/17 10:15:00;;;;;;;5.47;3.15;;;;;;;26.75;46.28;99981.06;5585237;31;34433;-69
2023/06/17 10:18:08;;;;;;;3.10;2.70;;;;;;;25.81;48.59;99984.81;5585426;31;33732;-70
2023/06/17 10:21:14;;;;;;;4.47;3.12;;;;;;;26.99;45.86;99987.44;5577253;31;34843;-70
2023/06/17 10:24:23;;;;;;;4.18;3.05;;;;;;;27.36;44.55;99992.25;5566712;31;34508;-69
2023/06/17 10:27:31;;;;;;;7.68;2.75;;;;;;;28.51;43.71;99993.94;5582748;31;34027;-69
2023/06/17 10:30:39;;;;;;;4.28;2.80;;;;;;;29.31;41.44;99996.50;5586467;31;33633;-71
2023/06/17 10:33:49;;;;;;;8.45;2.78;;;;;;;27.98;44.11;99987.81;5581335;31;34783;-71
2023/06/17 10:37:02;;;;;;;4.57;2.83;;;;;;;27.59;44.36;99988.78;5586434;31;34322;-69
2023/06/17 10:40:25;;;;;;;8.90;3.00;;;;;;;28.57;42.34;99991.91;5586337;31;33684;-69
2023/06/17 10:43:38;;;;;;;6.15;3.10;;;;;;;27.71;42.65;99985.66;5577150;31;34585;-68
2023/06/17 10:46:43;;;;;;;5.57;2.72;;;;;;;29.20;40.42;99997.75;5566129;31;34802;-69
2023/06/17 10:49:53;;;;;;;4.55;2.70;;;;;;;28.33;41.29;99997.44;5565940;32;33239;-70
2023/06/17 10:52:59;;;;;;;4.60;2.65;;;;;;;28.94;40.39;99991.91;5583779;31;34425;-69
2023/06/17 10:56:07;;;;;;;7.57;2.90;;;;;;;27.69;42.20;99987.88;5575577;31;33799;-71
2023/06/17 10:59:11;;;;;;;4.65;2.70;;;;;;;29.63;39.68;99990.94;5568385;31;34569;-72
2023/06/17 11:02:21;;;;;;;8.63;2.83;;;;;;;29.00;39.92;99995.38;5582158;31;34100;-71
2023/06/17 11:05:35;;;;;;;5.40;2.83;;;;;;;29.43;40.17;99993.28;5573374;31;34037;-70
2023/06/17 11:08:42;;;;;;;4.00;2.45;;;;;;;28.79;41.07;99989.44;5585048;31;34034;-69
2023/06/17 11:11:51;;;;;;;7.68;2.87;;;;;;;29.33;38.87;99975.16;5585177;31;35012;-68
2023/06/17 11:14:59;;;;;;;6.53;2.47;;;;;;;29.32;39.39;99979.81;5585728;31;33792;-70
2023/06/17 11:18:04;;;;;;;5.22;2.67;;;;;;;29.13;40.17;99986.41;5587430;31;33712;-70
2023/06/17 11:21:09;;;;;;;5.50;2.70;;;;;;;28.48;40.74;99992.59;5588303;31;34626;-71
2023/06/17 11:24:17;;;;;;;5.47;2.70;;;;;;;27.49;43.20;99979.94;5588010;31;33851;-69
2023/06/17 11:27:23;;;;;;;3.28;2.70;;;;;;;28.07;41.88;99984.13;5588418;31;33756;-73
2023/06/17 11:30:32;;;;;;;3.08;2.60;;;;;;;28.63;40.25;99977.91;5588349;31;33553;-71
2023/06/17 11:33:41;;;;;;;4.55;2.67;;;;;;;29.94;38.00;99982.19;5554618;32;33660;-68
2023/06/17 11:36:53;;;;;;;2.97;2.10;;;;;;;31.55;35.11;99982.16;5567869;32;33894;-70
2023/06/17 11:39:59;;;;;;;2.83;2.50;;;;;;;30.05;37.35;99973.47;5568584;32;33599;-70
2023/06/17 11:43:05;;;;;;;3.55;2.40;;;;;;;31.92;35.02;99973.44;5569138;31;34782;-70
2023/06/17 11:46:10;;;;;;;4.30;2.65;;;;;;;31.49;36.40;99965.03;5572629;31;33804;-71
2023/06/17 11:49:17;;;;;;;7.45;2.65;;;;;;;31.83;34.91;99967.12;5582600;31;34333;-72
2023/06/17 11:52:24;;;;;;;6.20;2.20;;;;;;;29.42;37.26;99959.66;5587804;31;34597;-71
2023/06/17 11:55:32;;;;;;;6.35;2.40;;;;;;;28.80;39.12;99969.22;5588130;31;34332;-71
2023/06/17 11:58:40;;;;;;;5.50;2.60;;;;;;;30.72;35.79;99951.69;5588102;31;33864;-69
2023/06/17 12:01:44;;;;;;;3.55;2.67;;;;;;;29.32;37.42;99963.41;5584163;31;33895;-71
2023/06/17 12:04:53;;;;;;;4.10;2.22;;;;;;;29.73;37.10;99952.47;5586360;31;33789;-70
2023/06/17 12:08:01;;;;;;;3.53;2.60;;;;;;;32.49;32.90;99954.16;5574230;31;34067;-70
2023/06/17 12:11:22;;;;;;;4.20;2.13;;;;;;;31.70;34.21;99949.69;5586783;31;33929;-70
2023/06/17 12:14:27;;;;;;;4.78;2.28;;;;;;;31.35;34.54;99956.13;5579112;31;34841;-71
2023/06/17 12:17:45;;;;;;;3.75;2.25;;;;;;;32.18;32.98;99960.63;5587831;31;33656;-70
2023/06/17 12:20:52;;;;;;;3.75;2.03;;;;;;;33.77;31.39;99960.53;5587837;31;34427;-72
2023/06/17 12:23:57;;;;;;;4.18;2.35;;;;;;;31.27;33.64;99949.47;5583035;31;32437;-69
2023/06/17 12:27:02;;;;;;;4.82;2.17;;;;;;;30.74;34.70;99946.72;5562909;31;33769;-71
2023/06/17 12:30:08;;;;;;;3.30;2.10;;;;;;;32.36;33.12;99944.97;5575214;31;34892;-71
2023/06/17 12:33:11;;;;;;;3.90;2.05;;;;;;;32.08;32.86;99949.09;5578597;31;34683;-71
2023/06/17 12:36:19;;;;;;;4.18;2.15;;;;;;;31.35;33.81;99945.97;5578031;31;34645;-70
2023/06/17 12:39:22;;;;;;;5.75;2.20;;;;;;;31.90;33.40;99953.75;5562476;31;34604;-69
2023/06/17 12:42:26;;;;;;;3.67;1.90;;;;;;;30.66;34.34;99950.19;5585494;31;33557;-71
2023/06/17 12:45:32;;;;;;;2.25;1.80;;;;;;;30.83;33.67;99939.37;5587454;31;34441;-72
2023/06/17 12:48:41;;;;;;;4.97;2.08;;;;;;;29.63;35.84;99949.94;5586186;31;34338;-70
2023/06/17 12:51:47;;;;;;;3.12;2.00;;;;;;;28.57;37.60;99945.50;5573743;31;33746;-68
2023/06/17 12:55:00;;;;;;;4.50;1.83;;;;;;;29.46;35.82;99951.66;5586857;31;34322;-71
2023/06/17 12:58:06;;;;;;;3.37;1.83;;;;;;;29.97;36.10;99935.88;5580831;31;34707;-72
2023/06/17 13:01:14;;;;;;;3.92;1.60;;;;;;;28.87;36.73;99945.06;5586386;31;34852;-70
2023/06/17 13:04:20;;;;;;;1.98;1.50;;;;;;;28.86;36.70;99946.16;5573412;31;33799;-70
2023/06/17 13:07:29;;;;;;;3.78;1.70;;;;;;;28.63;36.14;99941.59;5585464;31;33548;-71
2023/06/17 13:10:36;;;;;;;2.05;1.48;;;;;;;31.32;32.19;99945.78;5587044;31;34108;-70
2023/06/17 13:13:45;;;;;;;4.10;1.60;;;;;;;30.36;32.83;99939.91;5587125;31;33775;-71
2023/06/17 13:16:51;;;;;;;4.28;1.60;;;;;;;28.73;35.99;99938.75;5586926;31;33629;-71
2023/06/17 13:19:58;;;;;;;3.62;1.58;;;;;;;32.56;32.22;99949.81;5572929;31;33874;-71
2023/06/17 13:23:05;;;;;;;1.58;1.45;;;;;;;33.92;30.30;99948.94;5578205;31;34016;-69
2023/06/17 13:26:12;;;;;;;;;;;;;;;32.85;30.45;99951.09;5586700;31;33642;-70
2023/06/17 13:29:17;;;;;;;2.70;1.30;;;;;;;32.16;30.74;99942.84;5573920;31;34542;-72
2023/06/17 13:32:24;;;;;;;6.57;1.92;;;;;;;33.10;29.10;99939.25;5586047;31;33680;-68
2023/06/17 13:35:31;;;;;;;3.50;1.70;;;;;;;32.15;30.42;99941.22;5579604;31;33657;-72
2023/06/17 13:38:37;;;;;;;4.03;1.62;;;;;;;30.38;33.67;99934.97;5572678;31;34495;-73
2023/06/17 13:41:43;;;;;;;2.10;1.40;;;;;;;30.44;33.18;99941.94;5586335;31;34097;-72
2023/06/17 13:44:49;;;;;;;4.50;1.60;;;;;;;31.00;31.12;99942.19;5586678;31;34884;-71
2023/06/17 13:47:54;;;;;;;2.08;1.62;;;;;;;30.27;32.57;99933.56;5586349;31;33864;-70
2023/06/17 13:51:03;;;;;;;9.15;1.67;;;;;;;31.77;30.94;99936.28;5570989;31;33857;-71
2023/06/17 13:54:09;;;;;;;3.90;1.50;;;;;;;32.51;30.02;99938.97;5566708;32;33819;-72
2023/06/17 13:57:17;;;;;;;5.43;1.50;;;;;;;32.00;31.54;99933.44;5565510;32;34467;-69
2023/06/17 14:00:24;;;;;;;3.40;1.70;;;;;;;31.80;31.77;99929.38;5566778;32;34925;-72
2023/06/17 14:03:34;;;;;;;3.45;1.70;;;;;;;30.69;33.91;99930.41;5566860;32;33955;-70
2023/06/17 14:06:40;;;;;;;2.42;1.50;;;;;;;31.75;32.36;99940.50;5566280;32;34515;-69
2023/06/17 14:09:48;;;;;;;3.37;1.70;;;;;;;27.89;38.32;99935.81;5566693;32;33584;-70
2023/06/17 14:12:54;;;;;;;2.08;1.58;;;;;;;27.71;39.36;99930.34;5566784;32;33955;-70
2023/06/17 14:16:00;;;;;;;3.97;1.67;;;;;;;27.64;39.04;99936.94;5566674;32;34088;-69
2023/06/17 14:19:08;;;;;;;5.35;1.62;;;;;;;29.60;36.02;99931.44;5566728;32;33761;-71
2023/06/17 14:22:16;;;;;;;2.72;1.90;;;;;;;28.35;37.13;99943.41;5566467;32;33904;-69
2023/06/17 14:25:24;;;;;;;2.35;1.50;;;;;;;25.82;42.20;99930.22;5581192;31;33061;-69
2023/06/17 14:28:31;;;;;;;2.92;1.65;;;;;;;25.47;43.54;99936.56;5586129;31;34610;-68
2023/06/17 14:31:41;;;;;;;5.43;2.12;;;;;;;25.29;44.37;99931.72;5585874;31;33842;-68
2023/06/17 14:34:50;;;;;;;4.03;1.73;;;;;;;26.57;41.73;99936.31;5585731;31;33897;-69
2023/06/17 14:37:56;;;;;;;3.58;1.80;;;;;;;28.06;39.18;99933.41;5586065;31;34903;-66